createdAt,value
2018-02-17T00:01:15.821Z,3.30
2018-02-17T00:03:43.244Z,3.30
2018-02-17T00:06:10.756Z,3.20
2018-02-17T00:08:38.188Z,3.20
2018-02-17T00:11:05.619Z,3.20
2018-02-17T00:13:33.059Z,3.20
2018-02-17T00:16:00.486Z,3.20
2018-02-17T00:18:27.920Z,3.20
2018-02-17T00:20:55.351Z,3.10
2018-02-17T00:23:22.782Z,3.10
2018-02-17T00:25:50.203Z,3.10
2018-02-17T00:28:17.637Z,3.00
2018-02-17T00:30:45.075Z,3.00
2018-02-17T00:33:12.504Z,3.00
2018-02-17T00:35:39.928Z,3.00
2018-02-17T00:38:08.112Z,2.90
2018-02-17T00:40:35.539Z,2.90
2018-02-17T00:43:02.976Z,2.90
2018-02-17T00:45:30.428Z,2.90
2018-02-17T00:47:57.835Z,2.80
2018-02-17T00:50:26.036Z,2.80
2018-02-17T00:52:53.455Z,2.70
2018-02-17T00:55:20.885Z,2.70
2018-02-17T00:57:48.312Z,2.70
2018-02-17T01:00:15.804Z,2.70
2018-02-17T01:02:43.244Z,2.60
2018-02-17T01:05:10.686Z,2.70
2018-02-17T01:07:38.108Z,2.60
2018-02-17T01:10:06.309Z,2.60
2018-02-17T01:12:33.764Z,2.60
2018-02-17T01:15:01.200Z,2.60
2018-02-17T01:17:28.626Z,2.60
2018-02-17T01:19:56.053Z,2.60
2018-02-17T01:22:23.480Z,2.60
2018-02-17T01:24:51.678Z,2.50
2018-02-17T01:27:19.116Z,2.50
2018-02-17T01:29:46.531Z,2.50
2018-02-17T01:32:13.972Z,2.50
2018-02-17T01:34:41.419Z,2.50
2018-02-17T01:37:08.862Z,2.40
2018-02-17T01:39:36.363Z,2.40
2018-02-17T01:42:03.804Z,2.40
2018-02-17T01:44:31.254Z,2.40
2018-02-17T01:46:58.701Z,2.40
2018-02-17T01:49:26.128Z,2.40
2018-02-17T01:51:53.565Z,2.40
2018-02-17T01:54:21.760Z,2.40
2018-02-17T01:56:49.188Z,2.40
2018-02-17T01:59:16.619Z,2.40
2018-02-17T02:01:44.056Z,2.40
2018-02-17T02:04:11.485Z,2.40
2018-02-17T02:06:38.974Z,2.40
2018-02-17T02:09:06.380Z,2.40
2018-02-17T02:11:34.583Z,2.40
2018-02-17T02:14:02.017Z,2.40
2018-02-17T02:16:29.440Z,2.40
2018-02-17T02:18:56.868Z,2.40
2018-02-17T02:21:24.291Z,2.30
2018-02-17T02:23:52.498Z,2.30
2018-02-17T02:26:19.934Z,2.30
2018-02-17T02:28:47.368Z,2.40
2018-02-17T02:31:14.791Z,2.40
2018-02-17T02:33:42.239Z,2.40
2018-02-17T02:36:09.666Z,2.40
2018-02-17T02:38:37.093Z,2.40
2018-02-17T02:41:05.292Z,2.40
2018-02-17T02:43:32.728Z,2.40
2018-02-17T02:46:00.152Z,2.40
2018-02-17T02:48:27.584Z,2.30
2018-02-17T02:50:55.011Z,2.40
2018-02-17T02:53:22.445Z,2.30
2018-02-17T02:55:50.646Z,2.30
2018-02-17T02:58:18.056Z,2.30
2018-02-17T03:00:45.840Z,2.30
2018-02-17T03:03:13.341Z,2.30
2018-02-17T03:05:40.785Z,2.30
2018-02-17T03:08:08.219Z,2.30
2018-02-17T03:10:35.710Z,2.30
2018-02-17T03:13:03.295Z,2.30
2018-02-17T03:15:30.749Z,2.30
2018-02-17T03:17:58.378Z,2.30
2018-02-17T03:20:25.817Z,2.30
2018-02-17T03:22:54.222Z,2.30
2018-02-17T03:25:21.677Z,2.30
2018-02-17T03:27:49.120Z,2.30
2018-02-17T03:30:16.563Z,2.30
2018-02-17T03:32:43.984Z,2.30
2018-02-17T03:35:11.412Z,2.30
2018-02-17T03:37:38.855Z,2.30
2018-02-17T03:40:06.321Z,2.30
2018-02-17T03:42:33.869Z,2.30
2018-02-17T03:45:01.296Z,2.20
2018-02-17T03:47:28.728Z,2.30
2018-02-17T03:49:56.148Z,2.30
2018-02-17T03:52:23.697Z,2.30
2018-02-17T03:54:51.120Z,2.20
2018-02-17T03:57:18.547Z,2.20
2018-02-17T03:59:45.980Z,2.30
2018-02-17T04:02:13.416Z,2.30
2018-02-17T04:04:40.853Z,2.30
2018-02-17T04:07:08.376Z,2.20
2018-02-17T04:09:35.804Z,2.20
2018-02-17T04:12:03.239Z,2.20
2018-02-17T04:14:30.684Z,2.20
2018-02-17T04:16:58.115Z,2.20
2018-02-17T04:19:25.597Z,2.30
2018-02-17T04:21:53.027Z,2.30
2018-02-17T04:24:20.616Z,2.30
2018-02-17T04:26:48.055Z,2.30
2018-02-17T04:29:15.476Z,2.30
2018-02-17T04:31:42.984Z,2.30
2018-02-17T04:34:10.437Z,2.30
2018-02-17T04:36:37.852Z,2.30
2018-02-17T04:39:05.284Z,2.20
2018-02-17T04:41:38.433Z,2.20
2018-02-17T04:47:11.360Z,2.20
2018-02-17T04:49:53.663Z,2.20
2018-02-17T04:52:28.762Z,2.20
2018-02-17T04:55:07.007Z,2.20
2018-02-17T04:57:48.126Z,2.20
2018-02-17T05:00:25.445Z,2.20
2018-02-17T05:02:58.807Z,2.20
2018-02-17T05:05:36.119Z,2.20
2018-02-17T05:08:09.232Z,2.30
2018-02-17T05:10:36.656Z,2.20
2018-02-17T05:13:04.113Z,2.20
2018-02-17T05:15:34.230Z,2.20
2018-02-17T05:18:11.564Z,2.20
2018-02-17T05:23:37.025Z,2.30
2018-02-17T05:26:05.348Z,2.30
2018-02-17T05:28:42.360Z,2.30
2018-02-17T05:31:24.531Z,2.30
2018-02-17T05:33:54.727Z,2.30
2018-02-17T05:36:22.711Z,2.30
2018-02-17T05:38:52.742Z,2.30
2018-02-17T05:41:35.961Z,2.30
2018-02-17T05:44:03.403Z,2.30
2018-02-17T05:46:34.648Z,2.30
2018-02-17T05:49:02.625Z,2.30
2018-02-17T05:51:30.056Z,2.30
2018-02-17T05:53:57.477Z,2.20
2018-02-17T05:56:24.908Z,2.20
2018-02-17T05:58:52.327Z,2.20
2018-02-17T06:01:19.769Z,2.20
2018-02-17T06:03:47.184Z,2.20
2018-02-17T06:06:14.620Z,2.20
2018-02-17T06:08:42.288Z,2.20
2018-02-17T06:11:09.778Z,2.20
2018-02-17T06:13:37.187Z,2.10
2018-02-17T06:16:04.611Z,2.20
2018-02-17T06:18:32.039Z,2.20
2018-02-17T06:20:59.515Z,2.20
2018-02-17T06:23:26.970Z,2.20
2018-02-17T06:25:54.507Z,2.20
2018-02-17T06:28:21.932Z,2.20
2018-02-17T06:30:49.347Z,2.20
2018-02-17T06:33:16.786Z,2.20
2018-02-17T06:35:44.207Z,2.20
2018-02-17T06:38:11.730Z,2.20
2018-02-17T06:40:39.219Z,2.20
2018-02-17T06:43:06.686Z,2.20
2018-02-17T06:45:34.111Z,2.20
2018-02-17T06:48:01.545Z,2.10
2018-02-17T06:50:29.016Z,2.20
2018-02-17T06:52:56.504Z,2.20
2018-02-17T06:55:23.941Z,2.20
2018-02-17T06:57:51.382Z,2.20
2018-02-17T07:00:18.807Z,2.20
2018-02-17T07:02:46.233Z,2.20
2018-02-17T07:05:13.656Z,2.20
2018-02-17T07:07:41.157Z,2.30
2018-02-17T07:10:08.588Z,2.30
2018-02-17T07:12:36.015Z,2.20
2018-02-17T07:15:03.452Z,2.20
2018-02-17T07:17:30.884Z,2.20
2018-02-17T07:19:58.330Z,2.20
2018-02-17T07:22:25.930Z,2.20
2018-02-17T07:24:53.359Z,2.20
2018-02-17T07:27:20.797Z,2.10
2018-02-17T07:29:48.240Z,2.10
2018-02-17T07:32:15.672Z,2.00
2018-02-17T07:34:43.124Z,1.90
2018-02-17T07:37:10.559Z,1.90
2018-02-17T07:39:37.983Z,2.00
2018-02-17T07:42:05.425Z,2.10
2018-02-17T07:44:32.883Z,2.10
2018-02-17T07:47:00.319Z,2.10
2018-02-17T07:49:27.765Z,2.10
2018-02-17T07:51:55.215Z,2.20
2018-02-17T07:54:22.655Z,2.20
2018-02-17T07:56:50.119Z,2.20
2018-02-17T07:59:17.524Z,2.30
2018-02-17T08:01:44.965Z,2.20
2018-02-17T08:04:12.444Z,2.00
2018-02-17T08:06:39.894Z,2.00
2018-02-17T08:09:07.336Z,2.00
2018-02-17T08:11:34.767Z,1.90
2018-02-17T08:14:02.195Z,1.90
2018-02-17T08:16:29.627Z,2.00
2018-02-17T08:18:57.847Z,2.20
2018-02-17T08:21:25.321Z,2.20
2018-02-17T08:23:52.757Z,2.30
2018-02-17T08:26:20.183Z,2.30
2018-02-17T08:28:47.675Z,2.20
2018-02-17T08:31:15.119Z,2.30
2018-02-17T08:33:42.800Z,2.40
2018-02-17T08:36:10.228Z,2.50
2018-02-17T08:38:37.666Z,2.50
2018-02-17T08:41:05.144Z,2.50
2018-02-17T08:43:32.632Z,2.60
2018-02-17T08:46:00.130Z,2.50
2018-02-17T08:48:27.624Z,2.60
2018-02-17T08:50:55.101Z,2.60
2018-02-17T08:53:22.604Z,2.60
2018-02-17T08:55:50.073Z,2.60
2018-02-17T08:58:18.292Z,2.70
2018-02-17T09:00:45.728Z,2.70
2018-02-17T09:03:13.292Z,2.70
2018-02-17T09:05:40.905Z,2.80
2018-02-17T09:08:08.349Z,2.80
2018-02-17T09:10:47.504Z,2.80
2018-02-17T09:13:14.936Z,2.80
2018-02-17T09:15:43.323Z,2.80
2018-02-17T09:18:10.758Z,2.80
2018-02-17T09:20:38.187Z,2.80
2018-02-17T09:23:05.772Z,2.90
2018-02-17T09:25:33.470Z,2.90
2018-02-17T09:28:00.991Z,2.90
2018-02-17T09:30:28.428Z,2.90
2018-02-17T09:32:56.212Z,3.00
2018-02-17T09:35:23.967Z,3.00
2018-02-17T09:37:51.389Z,3.00
2018-02-17T09:40:18.833Z,3.00
2018-02-17T09:42:46.256Z,3.00
2018-02-17T09:45:14.233Z,3.00
2018-02-17T09:47:41.739Z,3.00
2018-02-17T09:50:09.147Z,3.10
2018-02-17T09:52:36.576Z,3.10
2018-02-17T09:55:04.024Z,3.10
2018-02-17T09:57:31.548Z,3.10
2018-02-17T09:59:59.008Z,3.10
2018-02-17T10:02:26.427Z,3.10
2018-02-17T10:04:54.615Z,3.10
2018-02-17T10:07:22.108Z,3.10
2018-02-17T10:09:49.532Z,3.20
2018-02-17T10:12:16.968Z,3.20
2018-02-17T10:14:44.406Z,3.20
2018-02-17T10:17:11.943Z,3.20
2018-02-17T10:19:39.572Z,3.20
2018-02-17T10:22:07.009Z,3.20
2018-02-17T10:24:35.241Z,3.20
2018-02-17T10:27:02.985Z,3.20
2018-02-17T10:29:30.415Z,3.20
2018-02-17T10:31:57.879Z,3.30
2018-02-17T10:34:25.308Z,3.20
2018-02-17T10:36:52.733Z,3.20
2018-02-17T10:39:20.160Z,3.30
2018-02-17T10:41:47.583Z,3.20
2018-02-17T10:44:16.097Z,3.30
2018-02-17T10:46:43.563Z,3.20
2018-02-17T10:49:10.980Z,3.30
2018-02-17T10:51:38.426Z,3.30
2018-02-17T10:54:05.907Z,3.30
2018-02-17T10:56:33.335Z,3.40
2018-02-17T10:59:00.770Z,3.40
2018-02-17T11:01:28.208Z,3.40
2018-02-17T11:03:55.630Z,3.40
2018-02-17T11:06:23.092Z,3.40
2018-02-17T11:08:50.578Z,3.40
2018-02-17T11:11:18.008Z,3.40
2018-02-17T11:13:45.475Z,3.50
2018-02-17T11:16:13.637Z,3.60
2018-02-17T11:18:41.075Z,3.50
2018-02-17T11:21:08.519Z,3.60
2018-02-17T11:23:35.956Z,3.60
2018-02-17T11:26:03.475Z,3.60
2018-02-17T11:28:31.252Z,3.70
2018-02-17T11:30:58.864Z,3.70
2018-02-17T11:33:27.074Z,3.70
2018-02-17T11:35:54.528Z,3.70
2018-02-17T11:38:21.964Z,3.70
2018-02-17T11:40:49.386Z,3.80
2018-02-17T11:43:16.820Z,3.80
2018-02-17T11:45:44.356Z,3.80
2018-02-17T11:48:11.817Z,3.90
2018-02-17T11:50:39.272Z,3.90
2018-02-17T11:53:06.700Z,4.00
2018-02-17T11:55:34.140Z,4.00
2018-02-17T11:58:01.623Z,4.00
2018-02-17T12:00:29.011Z,4.00
2018-02-17T12:02:56.504Z,4.00
2018-02-17T12:05:24.711Z,4.10
2018-02-17T12:07:52.131Z,4.00
2018-02-17T12:10:19.572Z,4.10
2018-02-17T12:12:47.164Z,4.10
2018-02-17T12:15:15.689Z,4.10
2018-02-17T12:17:43.376Z,4.10
2018-02-17T12:20:10.805Z,4.10
2018-02-17T12:22:38.236Z,4.10
2018-02-17T12:25:05.663Z,4.10
2018-02-17T12:27:33.870Z,4.20
2018-02-17T12:30:01.309Z,4.20
2018-02-17T12:32:28.748Z,4.20
2018-02-17T12:34:56.184Z,4.20
2018-02-17T12:37:23.636Z,4.20
2018-02-17T12:39:51.070Z,4.20
2018-02-17T12:42:18.484Z,4.30
2018-02-17T12:44:45.929Z,4.30
2018-02-17T12:47:14.143Z,4.30
2018-02-17T12:49:41.580Z,4.30
2018-02-17T12:52:09.000Z,4.40
2018-02-17T12:54:36.481Z,4.40
2018-02-17T12:57:03.883Z,4.40
2018-02-17T12:59:31.321Z,4.30
2018-02-17T13:01:58.748Z,4.40
2018-02-17T13:04:26.219Z,4.40
2018-02-17T13:06:53.785Z,4.40
2018-02-17T13:09:21.220Z,4.40
2018-02-17T13:11:48.655Z,4.40
2018-02-17T13:14:16.088Z,4.40
2018-02-17T13:16:43.539Z,4.40
2018-02-17T13:19:10.959Z,4.40
2018-02-17T13:21:38.405Z,4.30
2018-02-17T13:24:05.837Z,4.30
2018-02-17T13:26:34.037Z,4.30
2018-02-17T13:29:01.461Z,4.30
2018-02-17T13:31:28.920Z,4.40
2018-02-17T13:33:56.345Z,4.40
2018-02-17T13:36:23.891Z,4.40
2018-02-17T13:38:51.519Z,4.40
2018-02-17T13:41:18.957Z,4.30
2018-02-17T13:43:48.348Z,4.40
2018-02-17T13:46:15.793Z,4.40
2018-02-17T13:48:43.224Z,4.40
2018-02-17T13:51:10.647Z,4.40
2018-02-17T13:53:38.080Z,4.40
2018-02-17T13:56:06.279Z,4.40
2018-02-17T13:58:33.708Z,4.40
2018-02-17T14:01:01.140Z,4.30
2018-02-17T14:03:28.761Z,4.30
2018-02-17T14:05:56.175Z,4.30
2018-02-17T14:08:23.626Z,4.30
2018-02-17T14:10:51.063Z,4.30
2018-02-17T14:13:18.516Z,4.30
2018-02-17T14:15:46.153Z,4.30
2018-02-17T14:18:14.628Z,4.30
2018-02-17T14:20:42.060Z,4.30
2018-02-17T14:23:09.548Z,4.30
2018-02-17T14:25:37.188Z,4.20
2018-02-17T14:28:04.679Z,4.20
2018-02-17T14:30:32.220Z,4.20
2018-02-17T14:32:59.653Z,4.20
2018-02-17T14:35:27.139Z,4.20
2018-02-17T14:37:54.571Z,4.20
2018-02-17T14:40:22.001Z,4.30
2018-02-17T14:42:49.424Z,4.30
2018-02-17T14:45:16.876Z,4.30
2018-02-17T14:47:44.414Z,4.30
2018-02-17T14:50:11.847Z,4.40
2018-02-17T14:52:39.272Z,4.40
2018-02-17T14:55:06.720Z,4.40
2018-02-17T14:57:34.147Z,4.40
2018-02-17T15:00:01.587Z,4.40
2018-02-17T15:02:29.075Z,4.40
2018-02-17T15:04:56.504Z,4.50
2018-02-17T15:07:23.932Z,4.60
2018-02-17T15:09:51.370Z,4.60
2018-02-17T15:12:19.612Z,4.60
2018-02-17T15:14:47.217Z,4.60
2018-02-17T15:17:14.723Z,4.60
2018-02-17T15:19:42.152Z,4.60
2018-02-17T15:22:09.728Z,4.60
2018-02-17T15:24:37.257Z,4.60
2018-02-17T15:27:04.684Z,4.60
2018-02-17T15:29:32.119Z,4.60
2018-02-17T15:31:59.628Z,4.60
2018-02-17T15:34:27.308Z,4.60
2018-02-17T15:36:55.007Z,4.60
2018-02-17T15:39:22.435Z,4.60
2018-02-17T15:41:49.877Z,4.60
2018-02-17T15:44:17.316Z,4.60
2018-02-17T15:46:44.849Z,4.60
2018-02-17T15:49:12.271Z,4.60
2018-02-17T15:51:39.708Z,4.50
2018-02-17T15:54:07.140Z,4.60
2018-02-17T15:56:34.728Z,4.50
2018-02-17T15:59:02.364Z,4.50
2018-02-17T16:01:29.943Z,4.50
2018-02-17T16:03:57.600Z,4.50
2018-02-17T16:06:25.192Z,4.50
2018-02-17T16:08:52.932Z,4.50
2018-02-17T16:11:20.400Z,4.50
2018-02-17T16:13:49.357Z,4.50
2018-02-17T16:16:16.836Z,4.50
2018-02-17T16:18:44.292Z,4.40
2018-02-17T16:21:11.811Z,4.50
2018-02-17T16:23:39.707Z,4.50
2018-02-17T16:26:07.175Z,4.40
2018-02-17T16:28:34.640Z,4.40
2018-02-17T16:31:02.191Z,4.40
2018-02-17T16:33:29.635Z,4.40
2018-02-17T16:35:57.295Z,4.40
2018-02-17T16:38:24.801Z,4.40
2018-02-17T16:40:52.244Z,4.40
2018-02-17T16:43:19.680Z,4.40
2018-02-17T16:45:47.232Z,4.40
2018-02-17T16:48:14.847Z,4.30
2018-02-17T16:50:43.054Z,4.30
2018-02-17T16:53:10.526Z,4.30
2018-02-17T16:55:38.288Z,4.30
2018-02-17T16:58:06.080Z,4.30
2018-02-17T17:00:33.477Z,4.30
2018-02-17T17:03:00.900Z,4.20
2018-02-17T17:05:28.362Z,4.20
2018-02-17T17:07:55.775Z,4.20
2018-02-17T17:10:23.226Z,4.20
2018-02-17T17:12:50.697Z,4.20
2018-02-17T17:15:18.239Z,4.10
2018-02-17T17:17:45.703Z,4.10
2018-02-17T17:20:13.128Z,4.10
2018-02-17T17:22:40.613Z,4.10
2018-02-17T17:25:08.076Z,4.00
2018-02-17T17:27:35.503Z,4.00
2018-02-17T17:30:02.923Z,4.00
2018-02-17T17:32:30.380Z,3.90
2018-02-17T17:34:57.812Z,3.90
2018-02-17T17:37:25.243Z,3.90
2018-02-17T17:39:52.797Z,3.90
2018-02-17T17:42:20.216Z,3.90
2018-02-17T17:44:47.654Z,3.90
2018-02-17T17:47:15.172Z,3.90
2018-02-17T17:49:42.828Z,3.90
2018-02-17T17:52:10.400Z,3.90
2018-02-17T17:54:38.092Z,3.80
2018-02-17T17:57:05.512Z,3.80
2018-02-17T17:59:33.913Z,3.80
2018-02-17T18:02:01.437Z,3.80
2018-02-17T18:04:28.913Z,3.80
2018-02-17T18:06:56.352Z,3.80
2018-02-17T18:09:23.776Z,3.80
2018-02-17T18:11:51.282Z,3.80
2018-02-17T18:14:18.700Z,3.70
2018-02-17T18:16:46.188Z,3.70
2018-02-17T18:19:13.621Z,3.70
2018-02-17T18:21:41.065Z,3.70
2018-02-17T18:24:08.493Z,3.60
2018-02-17T18:26:36.060Z,3.60
2018-02-17T18:29:03.648Z,3.60
2018-02-17T18:31:31.104Z,3.60
2018-02-17T18:33:58.579Z,3.60
2018-02-17T18:36:26.052Z,3.60
2018-02-17T18:38:53.605Z,3.60
2018-02-17T18:41:21.028Z,3.50
2018-02-17T18:43:48.512Z,3.60
2018-02-17T18:46:16.176Z,3.50
2018-02-17T18:48:43.605Z,3.50
2018-02-17T18:51:11.024Z,3.50
2018-02-17T18:53:39.230Z,3.40
2018-02-17T18:56:06.648Z,3.40
2018-02-17T18:58:34.091Z,3.40
2018-02-17T19:01:02.285Z,3.40
2018-02-17T19:03:29.912Z,3.40
2018-02-17T19:05:57.331Z,3.40
2018-02-17T19:08:24.901Z,3.40
2018-02-17T19:10:52.326Z,3.30
2018-02-17T19:13:19.827Z,3.20
2018-02-17T19:15:47.283Z,3.20
2018-02-17T19:18:14.713Z,3.30
2018-02-17T19:20:42.148Z,3.20
2018-02-17T19:23:09.578Z,3.30
2018-02-17T19:25:37.011Z,3.30
2018-02-17T19:28:04.464Z,3.30
2018-02-17T19:30:31.912Z,3.30
2018-02-17T19:32:59.319Z,3.20
2018-02-17T19:35:27.540Z,3.20
2018-02-17T19:37:54.995Z,3.20
2018-02-17T19:40:22.456Z,3.20
2018-02-17T19:42:49.887Z,3.10
2018-02-17T19:45:17.312Z,3.00
2018-02-17T19:47:44.763Z,3.10
2018-02-17T19:50:12.284Z,3.20
2018-02-17T19:52:39.732Z,3.10
2018-02-17T19:55:07.182Z,3.00
2018-02-17T19:57:34.616Z,3.10
2018-02-17T20:00:02.041Z,3.10
2018-02-17T20:02:29.568Z,3.20
2018-02-17T20:04:57.198Z,3.10
2018-02-17T20:07:25.389Z,3.20
2018-02-17T20:09:52.828Z,3.10
2018-02-17T20:12:20.311Z,3.10
2018-02-17T20:14:47.736Z,3.10
2018-02-17T20:17:15.224Z,3.10
2018-02-17T20:19:42.668Z,3.10
2018-02-17T20:22:10.097Z,3.10
2018-02-17T20:24:37.523Z,3.10
2018-02-17T20:27:04.956Z,3.00
2018-02-17T20:29:32.424Z,3.00
2018-02-17T20:31:59.860Z,3.00
2018-02-17T20:34:27.329Z,3.00
2018-02-17T20:36:54.776Z,2.90
2018-02-17T20:39:22.320Z,2.90
2018-02-17T20:41:49.783Z,2.80
2018-02-17T20:44:17.218Z,2.80
2018-02-17T20:46:44.661Z,2.80
2018-02-17T20:49:12.076Z,2.70
2018-02-17T20:51:39.617Z,2.70
2018-02-17T20:54:07.272Z,2.60
2018-02-17T20:56:34.745Z,2.60
2018-02-17T20:59:02.181Z,2.60
2018-02-17T21:01:29.667Z,2.50
2018-02-17T21:03:57.217Z,2.50
2018-02-17T21:06:24.839Z,2.40
2018-02-17T21:08:52.430Z,2.40
2018-02-17T21:11:20.052Z,2.40
2018-02-17T21:13:47.540Z,2.40
2018-02-17T21:16:15.088Z,2.30
2018-02-17T21:18:42.541Z,2.30
2018-02-17T21:21:09.945Z,2.30
2018-02-17T21:23:37.373Z,2.20
2018-02-17T21:26:04.810Z,2.20
2018-02-17T21:28:32.257Z,2.20
2018-02-17T21:30:59.733Z,2.20
2018-02-17T21:33:27.292Z,2.20
2018-02-17T21:35:54.719Z,2.20
2018-02-17T21:38:22.204Z,2.10
2018-02-17T21:40:49.637Z,2.10
2018-02-17T21:43:17.123Z,2.10
2018-02-17T21:45:44.555Z,2.00
2018-02-17T21:48:11.980Z,2.00
2018-02-17T21:50:39.488Z,2.00
2018-02-17T21:53:06.918Z,2.00
2018-02-17T21:55:34.352Z,2.00
2018-02-17T21:58:01.768Z,2.00
2018-02-17T22:00:29.211Z,2.00
2018-02-17T22:02:56.804Z,2.00
2018-02-17T22:05:24.240Z,2.00
2018-02-17T22:07:51.672Z,1.90
2018-02-17T22:10:19.133Z,1.90
2018-02-17T22:12:46.552Z,1.90
2018-02-17T22:15:14.046Z,1.90
2018-02-17T22:17:41.797Z,1.90
2018-02-17T22:20:09.268Z,1.80
2018-02-17T22:22:36.720Z,1.80
2018-02-17T22:25:04.146Z,1.70
2018-02-17T22:27:31.580Z,1.70
2018-02-17T22:29:59.097Z,1.70
2018-02-17T22:32:26.527Z,1.70
2018-02-17T22:34:53.949Z,1.70
2018-02-17T22:37:22.583Z,1.60
2018-02-17T22:39:50.052Z,1.60
2018-02-17T22:42:17.605Z,1.60
2018-02-17T22:44:45.227Z,1.60
2018-02-17T22:47:12.695Z,1.60
2018-02-17T22:49:40.888Z,1.60
2018-02-17T22:52:08.345Z,1.60
2018-02-17T22:54:35.804Z,1.60
2018-02-17T22:57:03.265Z,1.60
2018-02-17T22:59:30.894Z,1.60
2018-02-17T23:01:58.362Z,1.60
2018-02-17T23:04:25.848Z,1.50
2018-02-17T23:06:53.327Z,1.50
2018-02-17T23:09:20.767Z,1.50
2018-02-17T23:11:48.197Z,1.50
2018-02-17T23:14:15.632Z,1.50
2018-02-17T23:16:43.216Z,1.50
2018-02-17T23:19:10.652Z,1.50
2018-02-17T23:21:38.079Z,1.40
2018-02-17T23:24:05.587Z,1.40
2018-02-17T23:26:33.236Z,1.40
2018-02-17T23:29:00.712Z,1.40
2018-02-17T23:31:28.167Z,1.40
2018-02-17T23:33:55.615Z,1.30
2018-02-17T23:36:23.056Z,1.30
2018-02-17T23:38:51.248Z,1.30
2018-02-17T23:41:18.695Z,1.30
2018-02-17T23:43:46.155Z,1.30
2018-02-17T23:46:13.622Z,1.30
2018-02-17T23:48:41.050Z,1.20
2018-02-17T23:51:08.463Z,1.20
2018-02-17T23:53:35.980Z,1.20
2018-02-17T23:56:03.408Z,1.20
2018-02-17T23:58:30.844Z,1.10
